createdAt,value
2019-05-02T00:00:39.028Z,21.23
2019-05-02T00:03:04.377Z,25.43
2019-05-02T00:05:27.331Z,24.18
2019-05-02T00:07:46.145Z,20.37
2019-05-02T00:10:08.267Z,22.15
2019-05-02T00:12:29.243Z,20.50
2019-05-02T00:14:51.094Z,21.35
2019-05-02T00:17:12.802Z,21.85
2019-05-02T00:19:34.467Z,21.25
2019-05-02T00:21:56.252Z,18.95
2019-05-02T00:24:17.676Z,19.27
2019-05-02T00:26:39.500Z,17.62
2019-05-02T00:29:01.110Z,18.57
2019-05-02T00:31:23.159Z,18.70
2019-05-02T00:33:44.653Z,17.57
2019-05-02T00:36:06.681Z,16.45
2019-05-02T00:38:28.307Z,20.08
2019-05-02T00:40:50.019Z,18.35
2019-05-02T00:43:11.879Z,20.02
2019-05-02T00:45:33.471Z,18.75
2019-05-02T00:47:55.399Z,19.90
2019-05-02T00:50:17.017Z,17.60
2019-05-02T00:52:38.750Z,18.87
2019-05-02T00:55:00.462Z,19.70
2019-05-02T00:57:22.411Z,18.82
2019-05-02T00:59:44.419Z,16.97
2019-05-02T01:02:07.217Z,16.57
2019-05-02T01:04:29.244Z,19.00
2019-05-02T01:06:50.837Z,17.65
2019-05-02T01:09:12.985Z,16.82
2019-05-02T01:11:35.189Z,18.15
2019-05-02T01:13:57.722Z,19.20
2019-05-02T01:16:20.320Z,19.30
2019-05-02T01:18:42.585Z,19.57
2019-05-02T01:21:04.377Z,16.73
2019-05-02T01:23:27.551Z,19.48
2019-05-02T01:25:52.783Z,18.73
2019-05-02T01:28:17.723Z,16.52
2019-05-02T01:30:37.308Z,18.27
2019-05-02T01:33:01.393Z,18.25
2019-05-02T01:35:21.664Z,18.92
2019-05-02T01:37:43.637Z,15.85
2019-05-02T01:40:05.525Z,16.30
2019-05-02T01:42:39.271Z,16.30
2019-05-02T01:44:50.679Z,15.85
2019-05-02T01:47:12.334Z,16.73
2019-05-02T01:49:33.973Z,15.18
2019-05-02T01:51:56.099Z,13.85
2019-05-02T01:54:17.978Z,15.68
2019-05-02T01:56:40.007Z,18.95
2019-05-02T01:59:01.262Z,17.07
2019-05-02T02:01:23.376Z,16.35
2019-05-02T02:03:46.963Z,16.73
2019-05-02T02:06:10.109Z,18.50
2019-05-02T02:08:33.938Z,16.48
2019-05-02T02:10:57.882Z,17.05
2019-05-02T02:13:18.382Z,15.13
2019-05-02T02:15:40.351Z,14.15
2019-05-02T02:18:02.341Z,15.53
2019-05-02T02:20:24.610Z,15.20
2019-05-02T02:22:46.948Z,16.02
2019-05-02T02:25:08.654Z,15.88
2019-05-02T02:27:30.945Z,18.15
2019-05-02T02:29:52.441Z,16.45
2019-05-02T02:32:20.206Z,16.77
2019-05-02T02:34:37.233Z,16.02
2019-05-02T02:36:59.234Z,15.20
2019-05-02T02:39:20.746Z,13.80
2019-05-02T02:41:45.150Z,14.18
2019-05-02T02:44:06.655Z,14.23
2019-05-02T02:46:30.641Z,15.20
2019-05-02T02:48:51.699Z,14.95
2019-05-02T02:51:22.768Z,16.70
2019-05-02T02:53:36.308Z,13.75
2019-05-02T02:56:02.026Z,14.70
2019-05-02T02:58:21.417Z,13.78
2019-05-02T03:00:47.602Z,13.25
2019-05-02T03:03:06.889Z,15.25
2019-05-02T03:05:28.801Z,14.43
2019-05-02T03:07:50.948Z,14.20
2019-05-02T03:10:12.515Z,12.82
2019-05-02T03:12:36.206Z,13.55
2019-05-02T03:14:57.041Z,11.78
2019-05-02T03:17:20.434Z,12.70
2019-05-02T03:19:41.797Z,12.80
2019-05-02T03:22:04.229Z,13.25
2019-05-02T03:24:26.325Z,13.50
2019-05-02T03:26:48.624Z,13.40
2019-05-02T03:29:11.811Z,13.48
2019-05-02T03:31:33.499Z,13.10
2019-05-02T03:34:00.172Z,16.05
2019-05-02T03:36:29.002Z,10.85
2019-05-02T03:38:41.651Z,13.08
2019-05-02T03:41:03.394Z,12.07
2019-05-02T03:43:25.823Z,14.38
2019-05-02T03:45:47.858Z,12.88
2019-05-02T03:48:09.333Z,12.80
2019-05-02T03:50:32.702Z,11.55
2019-05-02T03:52:54.481Z,12.37
2019-05-02T03:55:16.546Z,13.05
2019-05-02T03:57:42.001Z,11.10
2019-05-02T04:00:01.578Z,12.18
2019-05-02T04:02:23.463Z,12.78
2019-05-02T04:04:44.638Z,11.50
2019-05-02T04:07:06.266Z,12.60
2019-05-02T04:09:32.088Z,10.72
2019-05-02T04:11:51.906Z,12.58
2019-05-02T04:14:17.506Z,13.48
2019-05-02T04:16:36.685Z,11.45
2019-05-02T04:18:58.683Z,12.63
2019-05-02T04:21:24.334Z,12.15
2019-05-02T04:23:42.881Z,13.28
2019-05-02T04:26:12.098Z,11.40
2019-05-02T04:28:27.752Z,13.43
2019-05-02T04:30:51.294Z,9.93
2019-05-02T04:33:12.391Z,12.93
2019-05-02T04:35:35.189Z,14.95
2019-05-02T04:37:59.257Z,12.58
2019-05-02T04:40:20.298Z,11.73
2019-05-02T04:42:42.090Z,12.35
2019-05-02T04:45:21.406Z,14.40
2019-05-02T04:47:29.046Z,15.30
2019-05-02T04:49:51.981Z,21.25
2019-05-02T04:52:16.958Z,36.68
2019-05-02T04:54:38.868Z,39.13
2019-05-02T04:57:02.557Z,33.80
2019-05-02T04:59:23.083Z,35.05
2019-05-02T05:01:49.813Z,44.23
2019-05-02T05:04:08.266Z,52.50
2019-05-02T05:06:30.270Z,53.75
2019-05-02T05:08:52.385Z,46.77
2019-05-02T05:11:18.430Z,52.08
2019-05-02T05:13:37.556Z,51.42
2019-05-02T05:16:02.920Z,51.48
2019-05-02T05:18:22.505Z,52.90
2019-05-02T05:20:50.478Z,47.13
2019-05-02T05:23:08.285Z,54.30
2019-05-02T05:25:29.489Z,46.40
2019-05-02T05:27:52.677Z,49.25
2019-05-02T05:30:15.868Z,51.58
2019-05-02T05:32:37.641Z,47.65
2019-05-02T05:35:03.271Z,63.65
2019-05-02T05:37:22.815Z,47.43
2019-05-02T05:39:50.907Z,45.83
2019-05-02T05:42:10.672Z,48.05
2019-05-02T05:44:32.668Z,48.68
2019-05-02T05:46:54.021Z,42.88
2019-05-02T05:49:20.025Z,41.40
2019-05-02T05:51:38.797Z,46.77
2019-05-02T05:54:03.194Z,38.80
2019-05-02T05:56:24.230Z,40.80
2019-05-02T05:58:48.167Z,40.43
2019-05-02T06:01:10.385Z,33.50
2019-05-02T06:03:33.991Z,38.67
2019-05-02T06:05:55.256Z,32.17
2019-05-02T06:08:18.525Z,35.33
2019-05-02T06:10:43.906Z,32.35
2019-05-02T06:13:05.199Z,30.08
2019-05-02T06:15:26.862Z,34.13
2019-05-02T06:17:48.243Z,26.37
2019-05-02T06:20:10.298Z,27.98
2019-05-02T06:22:32.465Z,33.73
2019-05-02T06:24:54.470Z,29.10
2019-05-02T06:27:20.702Z,28.85
2019-05-02T06:29:39.781Z,27.20
2019-05-02T06:32:01.807Z,26.75
2019-05-02T06:34:23.484Z,25.65
2019-05-02T06:36:45.670Z,25.43
2019-05-02T06:39:08.081Z,22.40
2019-05-02T06:41:29.478Z,22.82
2019-05-02T06:43:51.527Z,28.57
2019-05-02T06:46:16.326Z,21.90
2019-05-02T06:48:35.710Z,21.60
2019-05-02T06:50:57.944Z,25.00
2019-05-02T06:53:20.097Z,21.55
2019-05-02T06:55:41.982Z,24.20
2019-05-02T06:58:07.998Z,20.12
2019-05-02T07:00:35.390Z,21.45
2019-05-02T07:02:50.022Z,17.50
2019-05-02T07:05:11.768Z,20.15
2019-05-02T07:07:36.984Z,20.05
2019-05-02T07:09:56.439Z,16.77
2019-05-02T07:12:18.610Z,14.83
2019-05-02T07:14:40.829Z,17.45
2019-05-02T07:17:05.710Z,14.93
2019-05-02T07:19:27.258Z,13.08
2019-05-02T07:21:52.997Z,14.87
2019-05-02T07:24:11.800Z,13.45
2019-05-02T07:26:33.917Z,14.07
2019-05-02T07:28:55.952Z,16.37
2019-05-02T07:31:17.555Z,12.93
2019-05-02T07:33:39.155Z,14.68
2019-05-02T07:36:01.486Z,13.00
2019-05-02T07:38:25.678Z,11.95
2019-05-02T07:40:48.086Z,10.45
2019-05-02T07:43:13.474Z,12.35
2019-05-02T07:45:32.583Z,12.82
2019-05-02T07:47:53.836Z,12.28
2019-05-02T07:50:15.741Z,10.88
2019-05-02T07:52:37.348Z,16.02
2019-05-02T07:55:01.081Z,12.58
2019-05-02T07:57:25.220Z,13.72
2019-05-02T07:59:46.039Z,9.45
2019-05-02T08:02:08.046Z,14.13
2019-05-02T08:04:29.865Z,9.28
2019-05-02T08:06:52.003Z,11.45
2019-05-02T08:09:13.553Z,10.20
2019-05-02T08:11:37.043Z,10.70
2019-05-02T08:14:00.457Z,10.32
2019-05-02T08:16:22.324Z,9.93
2019-05-02T08:18:43.815Z,8.73
2019-05-02T08:21:05.836Z,13.00
2019-05-02T08:23:27.987Z,11.48
2019-05-02T08:25:50.242Z,11.78
2019-05-02T08:28:16.012Z,12.40
2019-05-02T08:30:40.419Z,12.65
2019-05-02T08:32:59.369Z,9.83
2019-05-02T08:35:21.121Z,7.65
2019-05-02T08:37:43.167Z,16.93
2019-05-02T08:40:05.300Z,9.60
2019-05-02T08:42:32.671Z,7.95
2019-05-02T08:44:51.674Z,9.83
2019-05-02T08:47:18.985Z,10.28
2019-05-02T08:49:37.312Z,9.85
2019-05-02T08:51:59.061Z,9.50
2019-05-02T08:54:20.128Z,10.35
2019-05-02T08:56:41.709Z,7.95
2019-05-02T08:59:03.018Z,8.48
2019-05-02T09:01:34.564Z,9.08
2019-05-02T09:03:55.311Z,9.75
2019-05-02T09:06:11.267Z,8.25
2019-05-02T09:08:32.773Z,11.57
2019-05-02T09:10:54.030Z,10.03
2019-05-02T09:13:15.856Z,7.80
2019-05-02T09:15:40.492Z,7.40
2019-05-02T09:18:02.852Z,8.40
2019-05-02T09:20:24.726Z,9.10
2019-05-02T09:22:51.435Z,10.15
2019-05-02T09:25:09.506Z,9.88
2019-05-02T09:27:31.883Z,10.25
2019-05-02T09:29:54.034Z,13.93
2019-05-02T09:32:17.086Z,12.93
2019-05-02T09:34:39.094Z,11.80
2019-05-02T09:37:02.684Z,10.72
2019-05-02T09:39:27.352Z,11.70
2019-05-02T09:41:48.515Z,11.60
2019-05-02T09:44:14.569Z,10.25
2019-05-02T09:46:33.755Z,11.33
2019-05-02T09:48:57.080Z,13.15
2019-05-02T09:51:18.741Z,14.35
2019-05-02T09:53:40.462Z,13.88
2019-05-02T09:56:02.345Z,15.13
2019-05-02T09:58:24.111Z,17.73
2019-05-02T10:00:45.836Z,14.93
2019-05-02T10:03:08.230Z,15.30
2019-05-02T10:05:32.243Z,16.37
2019-05-02T10:07:57.589Z,16.97
2019-05-02T10:10:17.443Z,21.10
2019-05-02T10:12:39.616Z,15.63
2019-05-02T10:15:02.311Z,15.35
2019-05-02T10:17:24.828Z,17.05
2019-05-02T10:19:49.579Z,20.85
2019-05-02T10:22:09.836Z,20.90
2019-05-02T10:24:32.329Z,24.02
2019-05-02T10:26:57.096Z,20.77
2019-05-02T10:29:22.827Z,26.12
2019-05-02T10:31:42.093Z,23.20
2019-05-02T10:34:08.347Z,25.72
2019-05-02T10:36:27.246Z,24.07
2019-05-02T10:38:53.293Z,35.92
2019-05-02T10:41:12.308Z,21.00
2019-05-02T10:43:34.489Z,22.02
2019-05-02T10:45:56.819Z,22.15
2019-05-02T10:48:25.881Z,25.62
2019-05-02T10:50:42.310Z,27.62
2019-05-02T10:53:11.219Z,23.47
2019-05-02T10:55:27.618Z,24.10
2019-05-02T10:57:48.902Z,25.57
2019-05-02T11:00:12.035Z,26.73
2019-05-02T11:02:33.510Z,28.57
2019-05-02T11:04:56.745Z,27.65
2019-05-02T11:07:22.682Z,27.22
2019-05-02T11:09:42.025Z,26.30
2019-05-02T11:12:03.718Z,26.30
2019-05-02T11:14:25.778Z,24.40
2019-05-02T11:16:47.338Z,23.60
2019-05-02T11:19:08.972Z,26.90
2019-05-02T11:21:32.212Z,26.30
2019-05-02T11:23:53.646Z,27.60
2019-05-02T11:26:21.446Z,25.88
2019-05-02T11:28:41.614Z,28.10
2019-05-02T11:31:06.849Z,24.43
2019-05-02T11:33:28.170Z,25.88
2019-05-02T11:35:51.562Z,32.55
2019-05-02T11:38:14.806Z,27.58
2019-05-02T11:40:37.317Z,26.23
2019-05-02T11:43:02.896Z,23.73
2019-05-02T11:45:22.700Z,27.25
2019-05-02T11:47:44.645Z,28.92
2019-05-02T11:50:07.775Z,24.35
2019-05-02T11:52:33.104Z,27.45
2019-05-02T11:54:52.471Z,23.47
2019-05-02T11:57:14.471Z,27.73
2019-05-02T11:59:37.202Z,32.60
2019-05-02T12:02:00.146Z,33.80
2019-05-02T12:04:22.023Z,29.75
2019-05-02T12:06:43.993Z,27.37
2019-05-02T12:09:05.602Z,24.87
2019-05-02T12:11:27.600Z,26.40
2019-05-02T12:13:54.788Z,25.77
2019-05-02T12:16:12.688Z,24.15
2019-05-02T12:18:34.535Z,25.72
2019-05-02T12:20:56.573Z,24.12
2019-05-02T12:23:17.784Z,24.32
2019-05-02T12:25:39.815Z,24.92
2019-05-02T12:28:02.338Z,21.42
2019-05-02T12:30:23.881Z,22.60
2019-05-02T12:32:46.415Z,22.48
2019-05-02T12:35:07.902Z,24.85
2019-05-02T12:37:29.405Z,20.72
2019-05-02T12:39:51.724Z,23.57
2019-05-02T12:42:13.476Z,26.95
2019-05-02T12:44:35.167Z,20.82
2019-05-02T12:46:56.598Z,23.40
2019-05-02T12:49:26.865Z,22.60
2019-05-02T12:51:42.891Z,19.32
2019-05-02T12:54:05.165Z,33.33
2019-05-02T12:56:27.100Z,24.15
2019-05-02T12:58:48.774Z,29.35
2019-05-02T13:01:12.282Z,23.95
2019-05-02T13:03:33.283Z,26.82
2019-05-02T13:05:55.009Z,23.77
2019-05-02T13:08:16.777Z,29.37
2019-05-02T13:10:38.068Z,22.62
2019-05-02T13:13:00.076Z,20.62
2019-05-02T13:15:22.041Z,25.40
2019-05-02T13:17:48.929Z,26.00
2019-05-02T13:20:08.711Z,20.40
2019-05-02T13:22:32.382Z,17.00
2019-05-02T13:24:54.949Z,21.05
2019-05-02T13:27:16.904Z,16.85
2019-05-02T13:29:38.281Z,17.98
2019-05-02T13:32:01.643Z,17.65
2019-05-02T13:34:24.231Z,20.62
2019-05-02T13:36:45.500Z,16.32
2019-05-02T13:39:07.628Z,15.45
2019-05-02T13:41:29.694Z,19.57
2019-05-02T13:43:52.456Z,15.98
2019-05-02T13:46:13.391Z,15.53
2019-05-02T13:48:35.235Z,15.35
2019-05-02T13:50:57.589Z,12.47
2019-05-02T13:53:19.679Z,13.35
2019-05-02T13:55:42.695Z,13.85
2019-05-02T13:58:13.853Z,13.78
2019-05-02T14:00:35.329Z,16.48
2019-05-02T14:02:56.930Z,13.72
2019-05-02T14:05:18.565Z,13.03
2019-05-02T14:07:40.389Z,12.65
2019-05-02T14:10:02.443Z,12.00
2019-05-02T14:12:24.484Z,16.30
2019-05-02T14:14:46.067Z,12.93
2019-05-02T14:17:08.917Z,15.83
2019-05-02T14:19:31.938Z,12.78
2019-05-02T14:21:54.436Z,12.58
2019-05-02T14:24:16.182Z,12.53
2019-05-02T14:26:38.286Z,12.25
2019-05-02T14:28:59.852Z,11.60
2019-05-02T14:31:21.777Z,10.68
2019-05-02T14:33:43.653Z,12.20
2019-05-02T14:36:05.691Z,11.43
2019-05-02T14:38:27.718Z,13.60
2019-05-02T14:40:49.569Z,14.07
2019-05-02T14:43:12.895Z,9.55
2019-05-02T14:45:34.107Z,10.63
2019-05-02T14:48:00.493Z,10.98
2019-05-02T14:50:24.274Z,12.47
2019-05-02T14:52:45.711Z,10.82
2019-05-02T14:55:06.405Z,10.55
2019-05-02T14:57:28.785Z,12.78
2019-05-02T14:59:59.076Z,14.20
2019-05-02T15:02:13.254Z,18.67
2019-05-02T15:04:38.299Z,28.50
2019-05-02T15:06:58.601Z,29.52
2019-05-02T15:09:22.545Z,29.23
2019-05-02T15:11:45.900Z,31.15
2019-05-02T15:14:11.435Z,30.37
2019-05-02T15:16:40.438Z,25.10
2019-05-02T15:18:56.904Z,31.50
2019-05-02T15:21:16.435Z,32.65
2019-05-02T15:23:38.277Z,31.42
2019-05-02T15:26:00.028Z,33.85
2019-05-02T15:28:22.848Z,25.12
2019-05-02T15:30:49.397Z,32.00
2019-05-02T15:33:08.409Z,35.80
2019-05-02T15:35:31.783Z,29.40
2019-05-02T15:37:56.733Z,29.98
2019-05-02T15:40:42.903Z,29.45
2019-05-02T15:42:42.219Z,34.27
2019-05-02T15:45:05.573Z,31.87
2019-05-02T15:47:28.185Z,30.32
2019-05-02T15:49:50.413Z,27.48
2019-05-02T15:52:12.573Z,31.93
2019-05-02T15:54:34.622Z,25.90
2019-05-02T15:57:02.878Z,26.05
2019-05-02T15:59:22.292Z,32.75
2019-05-02T16:01:47.369Z,27.35
2019-05-02T16:04:07.364Z,30.17
2019-05-02T16:06:31.578Z,39.63
2019-05-02T16:08:52.935Z,32.23
2019-05-02T16:11:16.974Z,25.77
2019-05-02T16:13:37.189Z,31.68
2019-05-02T16:16:02.250Z,23.32
2019-05-02T16:18:23.372Z,22.32
2019-05-02T16:20:48.713Z,19.32
2019-05-02T16:23:09.198Z,19.30
2019-05-02T16:25:32.018Z,28.05
2019-05-02T16:27:57.486Z,21.20
2019-05-02T16:30:17.099Z,19.23
2019-05-02T16:32:38.806Z,21.00
2019-05-02T16:35:02.782Z,18.20
2019-05-02T16:37:23.519Z,17.73
2019-05-02T16:39:49.434Z,21.35
2019-05-02T16:42:08.285Z,14.60
2019-05-02T16:44:29.917Z,19.73
2019-05-02T16:46:52.102Z,19.25
2019-05-02T16:49:18.481Z,17.82
2019-05-02T16:51:37.644Z,14.95
2019-05-02T16:54:01.630Z,12.58
2019-05-02T16:56:22.870Z,13.25
2019-05-02T16:58:47.011Z,18.45
2019-05-02T17:01:09.019Z,15.55
2019-05-02T17:03:31.613Z,15.65
2019-05-02T17:05:54.417Z,16.10
2019-05-02T17:08:19.887Z,15.30
2019-05-02T17:10:42.103Z,13.95
2019-05-02T17:13:03.389Z,12.05
2019-05-02T17:15:26.297Z,18.27
2019-05-02T17:17:48.170Z,13.38
2019-05-02T17:20:12.909Z,19.60
2019-05-02T17:22:33.662Z,20.90
2019-05-02T17:24:57.128Z,18.45
2019-05-02T17:27:20.629Z,20.95
2019-05-02T17:29:43.184Z,23.98
2019-05-02T17:32:05.097Z,19.57
2019-05-02T17:34:30.828Z,26.12
2019-05-02T17:36:51.972Z,19.87
2019-05-02T17:39:14.479Z,23.00
2019-05-02T17:41:37.098Z,18.07
2019-05-02T17:43:59.310Z,19.52
2019-05-02T17:46:23.670Z,17.65
2019-05-02T17:48:47.640Z,18.75
2019-05-02T17:51:07.681Z,19.75
2019-05-02T17:53:33.789Z,21.25
2019-05-02T17:55:52.677Z,21.55
2019-05-02T17:58:16.510Z,26.93
2019-05-02T18:00:37.370Z,22.15
2019-05-02T18:02:58.984Z,19.37
2019-05-02T18:05:21.683Z,22.17
2019-05-02T18:07:44.254Z,21.07
2019-05-02T18:10:14.339Z,20.35
2019-05-02T18:12:29.506Z,18.73
2019-05-02T18:14:59.095Z,17.17
2019-05-02T18:17:17.236Z,16.23
2019-05-02T18:19:38.875Z,11.88
2019-05-02T18:22:03.527Z,16.15
2019-05-02T18:24:24.675Z,16.85
2019-05-02T18:26:46.909Z,15.08
2019-05-02T18:29:09.719Z,18.60
2019-05-02T18:31:34.905Z,16.05
2019-05-02T18:33:55.371Z,15.23
2019-05-02T18:36:22.342Z,13.40
2019-05-02T18:38:41.780Z,19.17
2019-05-02T18:41:06.026Z,12.35
2019-05-02T18:43:26.491Z,15.45
2019-05-02T18:45:48.419Z,10.93
2019-05-02T18:48:09.701Z,11.30
2019-05-02T18:50:32.013Z,8.75
2019-05-02T18:52:53.425Z,9.15
2019-05-02T18:55:17.148Z,11.85
2019-05-02T18:57:37.689Z,9.43
2019-05-02T18:59:59.467Z,8.80
2019-05-02T19:02:21.642Z,9.05
2019-05-02T19:04:43.740Z,10.75
2019-05-02T19:07:07.638Z,13.28
2019-05-02T19:09:30.471Z,8.35
2019-05-02T19:12:04.819Z,10.75
2019-05-02T19:14:16.615Z,10.35
2019-05-02T19:16:42.655Z,11.88
2019-05-02T19:19:05.156Z,8.05
2019-05-02T19:21:32.069Z,10.68
2019-05-02T19:23:51.694Z,9.88
2019-05-02T19:26:15.366Z,6.87
2019-05-02T19:28:38.412Z,7.50
2019-05-02T19:31:03.066Z,10.78
2019-05-02T19:33:23.504Z,9.00
2019-05-02T19:35:46.925Z,12.35
2019-05-02T19:38:08.805Z,9.35
2019-05-02T19:40:31.842Z,7.25
2019-05-02T19:42:57.247Z,5.55
2019-05-02T19:45:17.047Z,8.00
2019-05-02T19:47:39.312Z,8.45
2019-05-02T19:50:03.030Z,5.00
2019-05-02T19:52:28.562Z,8.10
2019-05-02T19:54:48.228Z,5.47
2019-05-02T19:57:11.849Z,7.40
2019-05-02T19:59:33.494Z,10.38
2019-05-02T20:01:56.888Z,6.15
2019-05-02T20:04:19.532Z,9.58
2019-05-02T20:06:41.836Z,7.75
2019-05-02T20:09:04.789Z,6.12
2019-05-02T20:11:28.006Z,3.22
2019-05-02T20:13:50.629Z,5.87
2019-05-02T20:16:12.525Z,5.95
2019-05-02T20:18:42.386Z,6.00
2019-05-02T20:20:57.884Z,8.65
2019-05-02T20:23:28.332Z,5.42
2019-05-02T20:25:43.298Z,5.87
2019-05-02T20:28:05.801Z,4.42
2019-05-02T20:30:27.296Z,6.67
2019-05-02T20:32:48.706Z,4.15
2019-05-02T20:35:11.953Z,3.10
2019-05-02T20:37:33.530Z,4.47
2019-05-02T20:39:55.787Z,4.37
2019-05-02T20:42:17.987Z,6.60
2019-05-02T20:44:41.895Z,4.40
2019-05-02T20:47:03.279Z,5.12
2019-05-02T20:49:25.343Z,6.60
2019-05-02T20:51:47.220Z,3.02
2019-05-02T20:54:08.241Z,3.85
2019-05-02T20:56:31.939Z,6.95
2019-05-02T20:58:53.630Z,4.65
2019-05-02T21:01:15.897Z,5.83
2019-05-02T21:03:37.191Z,5.22
2019-05-02T21:05:59.209Z,3.37
2019-05-02T21:08:24.961Z,4.42
2019-05-02T21:10:47.152Z,5.37
2019-05-02T21:13:08.755Z,3.37
2019-05-02T21:15:32.358Z,4.17
2019-05-02T21:17:53.475Z,3.05
2019-05-02T21:20:15.663Z,3.83
2019-05-02T21:22:37.620Z,5.20
2019-05-02T21:24:59.211Z,2.62
2019-05-02T21:27:21.818Z,4.20
2019-05-02T21:29:43.946Z,6.12
2019-05-02T21:32:05.674Z,2.60
2019-05-02T21:34:27.376Z,3.45
2019-05-02T21:36:49.453Z,3.15
2019-05-02T21:39:12.829Z,1.98
2019-05-02T21:41:35.544Z,2.12
2019-05-02T21:43:57.787Z,2.37
2019-05-02T21:46:19.820Z,2.92
2019-05-02T21:48:42.013Z,3.83
2019-05-02T21:51:03.693Z,3.00
2019-05-02T21:53:25.927Z,2.40
2019-05-02T21:55:47.955Z,2.72
2019-05-02T21:58:12.004Z,4.15
2019-05-02T22:00:32.848Z,3.10
2019-05-02T22:02:54.875Z,6.65
2019-05-02T22:05:16.446Z,2.35
2019-05-02T22:07:38.432Z,2.95
2019-05-02T22:10:00.065Z,2.62
2019-05-02T22:12:22.595Z,3.17
2019-05-02T22:14:44.334Z,2.00
2019-05-02T22:17:06.957Z,3.15
2019-05-02T22:19:29.671Z,4.65
2019-05-02T22:21:52.520Z,2.90
2019-05-02T22:24:14.597Z,2.33
2019-05-02T22:26:36.127Z,2.42
2019-05-02T22:28:58.393Z,3.85
2019-05-02T22:31:22.724Z,2.33
2019-05-02T22:33:44.745Z,3.37
2019-05-02T22:36:06.117Z,3.42
2019-05-02T22:38:27.866Z,3.75
2019-05-02T22:40:49.693Z,1.90
2019-05-02T22:43:12.991Z,2.83
2019-05-02T22:45:34.413Z,2.65
2019-05-02T22:47:55.400Z,1.98
2019-05-02T22:50:17.594Z,1.98
2019-05-02T22:52:39.446Z,2.52
2019-05-02T22:55:02.998Z,2.42
2019-05-02T22:57:24.425Z,3.12
2019-05-02T22:59:46.189Z,2.10
2019-05-02T23:02:08.077Z,1.75
2019-05-02T23:04:29.592Z,2.08
2019-05-02T23:06:52.936Z,2.05
2019-05-02T23:09:15.300Z,2.60
2019-05-02T23:11:36.507Z,2.05
2019-05-02T23:13:58.230Z,1.62
2019-05-02T23:16:19.851Z,1.87
2019-05-02T23:18:42.609Z,3.50
2019-05-02T23:21:04.525Z,2.35
2019-05-02T23:23:26.685Z,2.10
2019-05-02T23:25:47.866Z,2.35
2019-05-02T23:28:09.819Z,2.90
2019-05-02T23:30:31.866Z,2.65
2019-05-02T23:32:53.855Z,2.00
2019-05-02T23:35:15.070Z,1.50
2019-05-02T23:37:36.787Z,2.12
2019-05-02T23:39:58.759Z,2.27
2019-05-02T23:42:21.848Z,1.45
2019-05-02T23:44:44.341Z,1.45
2019-05-02T23:47:06.141Z,2.12
2019-05-02T23:49:28.070Z,2.00
2019-05-02T23:51:49.923Z,1.92
2019-05-02T23:54:12.835Z,2.02
2019-05-02T23:56:34.885Z,2.55
2019-05-02T23:58:56.537Z,1.87
